Карточка аэропорта UACK

Внимание!
Информация на этой странице в стадии наполнения.
Если вы не увидели какой-то информации, или заметили неточность - пожалуйста сообщите нам!
Спасибо!
Команда RU-STAFF
Название аэропортаКокшетау
Название аэропорта (англ.)Kokshetau
Превышение889 ft. (271 m.)
Координаты53°19.8', 69°35.802'
Высота перехода10000ft
Эшелон переходаFL120, QNH<733:FL130
Коды ответчика7264-7267
Зона ОрВДАстана РПИ (UACN)
Данные METARUACK 151230Z 26003MPS 9999 BKN057CB 23/20 Q1014 NOSIG RMK QFE736/0982
Проноз погоды (TAF)
NOTAMshow/hide NOTAM
AWOS   TABLE

Информация о ВПП

ВПП Длина ВПП (м.) Покрытие Курс ВПП Частота ILS
022850Асфальтобетон21110.3
202850Асфальтобетон201109.5

Диспетчерские позиции




Спутниковое изображение